Adair, Illinois
Current Conditions -  °F | °C
As of 4:35 AM on Friday 21 Nov 2014 (Local Time) from KMQB Reporting Station
Clear Clear  
Wind Chill: -13°   Ceiling: Unl
Heat Index: -13°   Visibility: 10mi
Dew Point: -14°   Wind: 3mph
Humidity: 89%   Direction: 130°SE
Pressure: 30.41"   Gusts: NA
Location:  40.42°N, 90.5°W
Report Text: KMQB 211035Z AUTO 13003KT 10SM CLR M12/M14 A3041 RMK AO2 T11251140
Loading
Personal Weather Stations






























Interactive Weather Map New forecast layout! Learn more

10-Day Weather Forecast

Advertisements
Track Severe Weather on mobile